Time;durP1;ratioP1;P1;durP2;ratioP2;P2;SDS_P1;SDS_P2;PMS_P1;PMS_P2;Temp;Humidity;BMP_temperature;BMP_pressure;BME280_temperature;BME280_humidity;BME280_pressure;Samples;Min_cycle;Max_cycle;Signal;HPM_P1;HPM_P2
2022/05/19 00:00:23;;;;;;;29.25;21.55;;;;;;;22.28;58.16;101660.41;5012175;28;20029;-61
2022/05/19 00:02:49;;;;;;;30.27;20.58;;;;;;;22.27;58.35;101653.06;5014056;28;20065;-60
2022/05/19 00:05:15;;;;;;;26.92;20.33;;;;;;;22.36;57.94;101646.69;5017169;28;20512;-61
2022/05/19 00:07:41;;;;;;;27.83;22.13;;;;;;;22.28;57.89;101645.41;5029648;28;20033;-60
2022/05/19 00:10:06;;;;;;;29.15;20.48;;;;;;;22.25;58.61;101643.25;5014048;28;20073;-61
2022/05/19 00:12:32;;;;;;;28.55;20.60;;;;;;;22.19;58.75;101639.66;5015286;28;20134;-61
2022/05/19 00:15:00;;;;;;;26.25;21.48;;;;;;;22.19;58.59;101636.81;5014280;28;20041;-61
2022/05/19 00:17:25;;;;;;;28.98;20.80;;;;;;;22.11;58.61;101626.22;5012909;28;20026;-61
2022/05/19 00:19:51;;;;;;;28.88;21.70;;;;;;;22.11;58.72;101628.19;5011548;28;20156;-61
2022/05/19 00:22:17;;;;;;;32.15;21.95;;;;;;;22.10;58.80;101621.72;5015946;28;20030;-61
2022/05/19 00:24:43;;;;;;;31.20;22.00;;;;;;;22.10;58.69;101621.72;5012960;28;20037;-61
2022/05/19 00:27:08;;;;;;;27.48;22.27;;;;;;;22.10;58.81;101623.72;5014597;28;20021;-61
2022/05/19 00:29:33;;;;;;;31.42;22.92;;;;;;;22.12;58.46;101627.03;5013925;28;20461;-61
2022/05/19 00:31:59;;;;;;;25.63;21.00;;;;;;;22.14;58.50;101619.97;5010725;28;20041;-61
2022/05/19 00:34:24;;;;;;;28.48;22.40;;;;;;;22.10;58.74;101615.22;5013664;28;20449;-61
2022/05/19 00:36:59;;;;;;;27.35;21.58;;;;;;;21.98;59.14;101608.09;5014342;28;20049;-61
2022/05/19 00:39:26;;;;;;;28.23;22.92;;;;;;;21.94;59.40;101609.84;5016108;28;20060;-61
2022/05/19 00:42:43;;;;;;;31.40;22.73;;;;;;;21.99;59.21;101606.09;5016809;28;20029;-61
2022/05/19 00:44:36;;;;;;;30.33;22.60;;;;;;;21.89;59.28;101606.28;5012618;28;20041;-62
2022/05/19 00:47:02;;;;;;;26.40;22.17;;;;;;;21.86;59.79;101606.91;5012256;28;20423;-61
2022/05/19 00:49:36;;;;;;;29.75;22.60;;;;;;;21.89;59.41;101614.75;5013544;28;20088;-61
2022/05/19 00:52:10;;;;;;;29.25;22.35;;;;;;;21.76;59.96;101611.59;5013238;28;20026;-61
2022/05/19 00:54:42;;;;;;;29.70;22.05;;;;;;;21.73;59.99;101597.25;5019015;28;20168;-61
2022/05/19 00:57:17;;;;;;;28.23;22.58;;;;;;;21.75;60.02;101595.78;5014034;28;20029;-60
2022/05/19 00:59:47;;;;;;;31.30;23.00;;;;;;;21.66;60.23;101596.84;5012479;28;20030;-61
2022/05/19 01:02:17;;;;;;;29.75;23.27;;;;;;;21.66;60.34;101589.19;5012328;28;20045;-61
2022/05/19 01:05:01;;;;;;;34.55;23.80;;;;;;;21.69;59.99;101579.25;5011078;28;20485;-60
2022/05/19 01:07:39;;;;;;;29.48;23.55;;;;;;;21.64;60.12;101576.50;5014986;28;20026;-61
2022/05/19 01:10:06;;;;;;;32.63;24.05;;;;;;;21.55;60.33;101579.22;5033583;28;20389;-60
2022/05/19 01:12:33;;;;;;;29.42;23.27;;;;;;;21.51;60.59;101578.16;5031945;28;20117;-61
2022/05/19 01:15:00;;;;;;;33.92;24.73;;;;;;;21.53;60.59;101567.38;5011352;28;20080;-61
2022/05/19 01:17:26;;;;;;;27.55;23.00;;;;;;;21.47;60.75;101574.28;5013582;28;20036;-61
2022/05/19 01:19:57;;;;;;;27.88;23.80;;;;;;;21.46;61.07;101564.13;5014085;28;20030;-60
2022/05/19 01:22:50;;;;;;;32.03;23.90;;;;;;;21.52;60.24;101560.91;5013043;28;20026;-61
2022/05/19 01:25:28;;;;;;;31.15;23.23;;;;;;;21.45;60.49;101563.28;5014835;28;20289;-61
2022/05/19 01:27:53;;;;;;;34.25;23.95;;;;;;;21.46;60.80;101556.50;5015393;28;20033;-61
2022/05/19 01:30:19;;;;;;;30.00;24.92;;;;;;;21.38;61.00;101550.69;5011619;28;20053;-60
2022/05/19 01:32:44;;;;;;;29.60;23.80;;;;;;;21.35;61.00;101548.53;5021142;28;20029;-60
2022/05/19 01:35:10;;;;;;;31.10;24.85;;;;;;;21.38;60.88;101542.22;5010001;28;20034;-60
2022/05/19 01:37:35;;;;;;;28.48;23.13;;;;;;;21.40;60.83;101532.31;5010495;28;20056;-60
2022/05/19 01:40:11;;;;;;;34.30;24.77;;;;;;;21.35;60.94;101535.22;5010155;28;20030;-60
2022/05/19 01:43:04;;;;;;;30.52;23.98;;;;;;;21.37;60.50;101530.09;5010757;28;20065;-60
2022/05/19 01:45:45;;;;;;;31.95;24.42;;;;;;;21.28;60.90;101534.75;5012882;28;20030;-61
2022/05/19 01:48:24;;;;;;;30.48;23.70;;;;;;;21.31;61.09;101540.63;5012934;28;20021;-60
2022/05/19 01:51:01;;;;;;;28.90;24.65;;;;;;;21.26;61.56;101540.72;5003191;28;20030;-60
2022/05/19 01:53:38;;;;;;;34.08;25.30;;;;;;;21.24;61.04;101537.34;5011385;28;20041;-61
2022/05/19 01:56:15;;;;;;;33.05;25.52;;;;;;;21.25;61.56;101538.19;5007260;28;20762;-60
2022/05/19 01:58:48;;;;;;;31.35;24.75;;;;;;;21.28;61.52;101531.94;5002752;28;20026;-61
2022/05/19 02:01:15;;;;;;;33.10;25.85;;;;;;;21.29;61.46;101527.94;5008076;28;20053;-61
2022/05/19 02:03:53;;;;;;;29.38;23.95;;;;;;;21.26;61.56;101526.59;5008766;28;20034;-60
2022/05/19 02:06:28;;;;;;;32.38;24.77;;;;;;;21.28;61.36;101521.47;5007241;28;20025;-60
2022/05/19 02:08:59;;;;;;;31.88;25.15;;;;;;;21.25;61.62;101519.25;5011526;28;20038;-60
2022/05/19 02:11:29;;;;;;;31.50;24.80;;;;;;;21.13;62.32;101515.25;5010159;28;20033;-60
2022/05/19 02:14:00;;;;;;;35.25;25.52;;;;;;;21.19;61.94;101517.69;5011197;28;20034;-60
2022/05/19 02:16:30;;;;;;;31.83;24.15;;;;;;;21.17;62.18;101527.59;5012085;28;20397;-61
2022/05/19 02:18:56;;;;;;;32.03;25.02;;;;;;;21.20;62.07;101522.19;5011250;28;20104;-61
2022/05/19 02:21:22;;;;;;;32.72;24.98;;;;;;;21.20;62.02;101527.81;5008083;28;20543;-61
2022/05/19 02:23:47;;;;;;;28.83;24.40;;;;;;;21.22;62.20;101527.50;5009810;28;20049;-60
2022/05/19 02:26:13;;;;;;;28.10;24.10;;;;;;;21.22;62.16;101525.56;5012266;28;20397;-61
2022/05/19 02:28:41;;;;;;;31.35;24.65;;;;;;;21.24;62.19;101528.06;5011438;28;20072;-61
2022/05/19 02:31:07;;;;;;;31.55;24.42;;;;;;;21.21;62.34;101529.50;5011178;28;20033;-61
2022/05/19 02:33:32;;;;;;;27.98;24.42;;;;;;;21.17;62.31;101528.44;5011554;28;20489;-61
2022/05/19 02:35:58;;;;;;;34.28;24.42;;;;;;;21.10;62.96;101527.97;5011268;28;20180;-61
2022/05/19 02:38:23;;;;;;;30.75;23.48;;;;;;;21.18;62.62;101532.97;5007736;28;20034;-61
2022/05/19 02:40:49;;;;;;;31.42;23.38;;;;;;;21.20;62.50;101529.81;5009668;28;20030;-61
2022/05/19 02:43:16;;;;;;;32.53;23.10;;;;;;;21.16;62.91;101535.25;5011556;28;20080;-61
2022/05/19 02:45:41;;;;;;;28.70;22.80;;;;;;;21.19;62.81;101536.63;5010882;28;20367;-61
2022/05/19 02:48:08;;;;;;;29.50;22.67;;;;;;;21.16;63.23;101537.22;5009638;28;20037;-61
2022/05/19 02:50:34;;;;;;;28.95;23.98;;;;;;;21.12;63.35;101548.28;5011976;28;20041;-61
2022/05/19 02:53:00;;;;;;;24.42;20.67;;;;;;;21.19;62.57;101543.09;5000699;28;20037;-61
2022/05/19 02:55:25;;;;;;;25.52;21.67;;;;;;;21.21;62.39;101543.59;5017728;28;20041;-61
2022/05/19 02:57:51;;;;;;;26.40;21.45;;;;;;;21.19;62.37;101539.44;5024897;28;20034;-61
2022/05/19 03:00:20;;;;;;;23.83;19.95;;;;;;;21.15;62.52;101550.50;5024343;28;20032;-61
2022/05/19 03:02:46;;;;;;;24.83;18.85;;;;;;;21.25;62.68;101580.53;5009171;28;20034;-61
2022/05/19 03:05:15;;;;;;;20.90;18.73;;;;;;;21.23;62.38;101664.72;5012444;28;20065;-61
2022/05/19 03:07:43;;;;;;;29.50;21.58;;;;;;;21.22;62.43;101678.00;5013578;28;20026;-61
2022/05/19 03:10:09;;;;;;;35.28;25.13;;;;;;;21.25;62.56;101670.88;5018501;28;20124;-60
2022/05/19 03:12:35;;;;;;;23.90;17.83;;;;;;;21.27;60.62;101662.97;5015807;28;20056;-61
2022/05/19 03:15:00;;;;;;;23.50;18.85;;;;;;;21.20;60.56;101697.22;5015047;28;20069;-61
2022/05/19 03:17:26;;;;;;;22.85;19.08;;;;;;;21.28;60.89;101693.72;5016053;28;20030;-61
2022/05/19 03:19:55;;;;;;;25.85;20.23;;;;;;;21.27;61.07;101685.56;5015090;28;20121;-61
2022/05/19 03:22:21;;;;;;;23.00;20.60;;;;;;;21.27;61.12;101689.22;5013192;28;20038;-61
2022/05/19 03:24:46;;;;;;;24.77;19.83;;;;;;;21.27;61.20;101708.97;5013462;28;20117;-61
2022/05/19 03:27:12;;;;;;;23.30;19.77;;;;;;;21.33;60.97;101699.31;5012811;28;20114;-61
2022/05/19 03:29:37;;;;;;;23.77;19.20;;;;;;;21.37;61.08;101708.00;5013558;28;20104;-61
2022/05/19 03:32:03;;;;;;;25.50;19.52;;;;;;;21.32;60.96;101697.63;5015370;28;20109;-61
2022/05/19 03:34:28;;;;;;;21.10;18.88;;;;;;;21.33;61.36;101702.13;5014889;28;20076;-61
2022/05/19 03:36:54;;;;;;;22.67;19.23;;;;;;;21.35;61.15;101699.03;5015291;28;20037;-61
2022/05/19 03:39:19;;;;;;;22.30;20.00;;;;;;;21.39;61.44;101699.25;5018430;28;20543;-61
2022/05/19 03:41:44;;;;;;;26.42;20.55;;;;;;;21.35;61.60;101701.84;5034084;28;20446;-61
2022/05/19 03:44:10;;;;;;;23.35;19.23;;;;;;;21.35;62.75;101701.00;5025071;28;20080;-61
2022/05/19 03:46:35;;;;;;;25.00;19.45;;;;;;;21.28;62.90;101709.81;5014489;28;20037;-60
2022/05/19 03:49:01;;;;;;;25.02;18.80;;;;;;;21.30;63.04;101693.44;5012323;28;20029;-61
2022/05/19 03:51:30;;;;;;;23.10;20.23;;;;;;;21.27;62.94;101682.72;5014909;28;20042;-61
2022/05/19 03:53:56;;;;;;;20.90;18.58;;;;;;;21.29;63.04;101678.44;5015137;28;20034;-61
2022/05/19 03:56:23;;;;;;;20.92;18.77;;;;;;;21.25;63.52;101688.66;5028889;28;20033;-60
2022/05/19 03:58:49;;;;;;;21.05;18.77;;;;;;;21.27;63.67;101694.88;5016978;28;20124;-61
2022/05/19 04:01:16;;;;;;;25.45;19.90;;;;;;;21.21;63.61;101715.84;5009348;28;20037;-60
2022/05/19 04:03:41;;;;;;;23.05;19.35;;;;;;;21.23;63.76;101724.00;5013462;28;20036;-60
2022/05/19 04:06:07;;;;;;;23.05;19.25;;;;;;;21.19;64.19;101720.97;5024750;28;20136;-61
2022/05/19 04:08:33;;;;;;;21.95;18.23;;;;;;;21.22;64.50;101717.53;5016614;28;20143;-60
2022/05/19 04:10:58;;;;;;;23.88;19.23;;;;;;;21.18;64.37;101716.47;5013859;28;20473;-61
2022/05/19 04:13:24;;;;;;;23.13;19.17;;;;;;;21.19;64.38;101717.31;5014167;28;20038;-61
2022/05/19 04:15:49;;;;;;;26.92;19.65;;;;;;;21.19;64.29;101706.00;5014044;28;20038;-61
2022/05/19 04:18:14;;;;;;;22.15;19.45;;;;;;;21.17;64.59;101714.75;5009736;28;20038;-61
2022/05/19 04:20:40;;;;;;;22.88;19.88;;;;;;;21.15;64.25;101722.72;5010434;28;20056;-61
2022/05/19 04:23:06;;;;;;;22.00;19.70;;;;;;;21.14;64.82;101725.81;5016185;28;20030;-61
2022/05/19 04:25:32;;;;;;;23.17;19.25;;;;;;;21.12;65.27;101723.31;5017966;28;20117;-61
2022/05/19 04:27:58;;;;;;;26.42;19.48;;;;;;;21.08;65.19;101723.06;5007589;28;20041;-61
2022/05/19 04:30:24;;;;;;;23.55;19.95;;;;;;;21.09;65.39;101721.09;5015857;28;20030;-61
2022/05/19 04:32:49;;;;;;;22.83;19.45;;;;;;;21.10;65.07;101714.28;5010119;28;20107;-60
2022/05/19 04:35:15;;;;;;;25.17;21.05;;;;;;;21.12;64.79;101714.00;5021591;28;20037;-62
2022/05/19 04:37:41;;;;;;;30.40;21.08;;;;;;;21.14;64.59;101709.72;5011066;28;20040;-61
2022/05/19 04:40:10;;;;;;;23.80;20.48;;;;;;;21.13;63.81;101707.22;5013018;28;20037;-61
2022/05/19 04:42:37;;;;;;;23.30;19.65;;;;;;;21.11;63.80;101693.41;5013026;28;20108;-60
2022/05/19 04:45:03;;;;;;;22.35;18.27;;;;;;;21.20;63.09;101714.16;5013017;28;20462;-61
2022/05/19 04:47:31;;;;;;;22.67;18.67;;;;;;;21.15;63.25;101710.59;5013714;28;20041;-61
2022/05/19 04:49:56;;;;;;;25.52;19.88;;;;;;;21.14;63.76;101712.53;5012649;28;20398;-61
2022/05/19 04:52:22;;;;;;;19.55;16.95;;;;;;;21.16;63.52;101701.81;5013637;28;20112;-62
2022/05/19 04:54:48;;;;;;;21.02;16.25;;;;;;;21.17;63.31;101686.53;5010239;28;20157;-61
2022/05/19 04:57:14;;;;;;;18.95;15.18;;;;;;;21.15;63.35;101694.47;5011759;28;20026;-60
2022/05/19 04:59:42;;;;;;;21.80;15.45;;;;;;;21.19;63.13;101694.72;5003805;28;20601;-60
2022/05/19 05:02:09;;;;;;;18.63;12.60;;;;;;;21.23;62.65;101702.25;5003862;28;20029;-60
2022/05/19 05:04:35;;;;;;;16.38;13.93;;;;;;;21.28;62.51;101699.34;5008669;28;20033;-60
2022/05/19 05:07:00;;;;;;;16.58;13.35;;;;;;;21.33;62.63;101701.28;5008783;28;20504;-60
2022/05/19 05:09:25;;;;;;;9.85;8.82;;;;;;;21.35;61.51;101707.50;5009027;28;20037;-61
2022/05/19 05:11:51;;;;;;;16.17;13.40;;;;;;;21.30;62.57;101696.25;5008935;28;20649;-60
2022/05/19 05:14:17;;;;;;;13.98;12.32;;;;;;;21.32;62.67;101682.66;5006051;28;21198;-60
2022/05/19 05:16:47;;;;;;;9.95;8.82;;;;;;;21.35;62.12;101693.38;5007880;28;20056;-60
2022/05/19 05:19:13;;;;;;;12.95;9.35;;;;;;;21.38;61.80;101677.78;4998631;28;20025;-60
2022/05/19 05:21:39;;;;;;;18.67;10.52;;;;;;;21.34;62.22;101669.09;5001917;28;20026;-60
2022/05/19 05:24:04;;;;;;;18.70;11.43;;;;;;;21.35;63.20;101655.81;5009700;28;20528;-60
2022/05/19 05:26:30;;;;;;;16.45;10.35;;;;;;;21.33;62.82;101656.94;5009473;28;20095;-60
2022/05/19 05:28:55;;;;;;;11.18;9.48;;;;;;;21.35;63.97;101638.88;5009406;28;20049;-61
2022/05/19 05:31:21;;;;;;;16.45;10.13;;;;;;;21.31;64.83;101635.78;5008695;28;20030;-60
2022/05/19 05:33:46;;;;;;;20.17;11.40;;;;;;;21.28;65.74;101640.06;5008584;28;20053;-60
2022/05/19 05:36:11;;;;;;;13.38;10.90;;;;;;;21.29;65.67;101635.25;5009688;28;20034;-61
2022/05/19 05:38:36;;;;;;;13.25;11.07;;;;;;;21.26;66.79;101619.78;5009928;28;20091;-61
2022/05/19 05:41:03;;;;;;;16.00;12.40;;;;;;;21.19;66.46;101605.22;5006317;28;20041;-61
2022/05/19 05:43:30;;;;;;;14.68;12.45;;;;;;;21.27;65.93;101587.56;5010118;28;20030;-61
2022/05/19 05:46:04;;;;;;;15.70;13.82;;;;;;;21.20;66.27;101589.09;5011146;28;20541;-61
2022/05/19 05:48:29;;;;;;;16.67;14.40;;;;;;;21.07;66.86;101583.09;5009783;28;20296;-61
2022/05/19 05:50:55;;;;;;;17.50;12.95;;;;;;;21.18;66.07;101592.25;5010231;28;20129;-60
2022/05/19 05:53:20;;;;;;;14.85;12.25;;;;;;;21.06;66.07;101609.66;5009000;28;20057;-60
2022/05/19 05:55:45;;;;;;;15.65;12.20;;;;;;;21.07;66.14;101597.22;5010345;28;20045;-60
2022/05/19 05:58:10;;;;;;;15.20;12.10;;;;;;;21.03;66.51;101595.31;5010674;28;20500;-61
2022/05/19 06:00:38;;;;;;;14.15;11.80;;;;;;;21.00;66.54;101593.09;5011452;28;20065;-61
2022/05/19 06:03:06;;;;;;;14.13;12.00;;;;;;;20.93;66.74;101579.34;5010441;28;20442;-59
2022/05/19 06:05:34;;;;;;;16.10;11.88;;;;;;;20.98;66.29;101572.78;5011074;28;20113;-60
2022/05/19 06:08:00;;;;;;;13.73;12.20;;;;;;;20.98;64.26;101581.25;5011827;28;20030;-60
2022/05/19 06:10:26;;;;;;;15.85;13.15;;;;;;;20.88;66.87;101602.00;5023443;28;20052;-60
2022/05/19 06:12:51;;;;;;;15.32;12.80;;;;;;;20.92;67.07;101599.41;5011171;28;20212;-60
2022/05/19 06:15:23;;;;;;;15.75;12.18;;;;;;;21.00;66.63;101608.03;5010823;28;20089;-61
2022/05/19 06:17:48;;;;;;;18.38;13.73;;;;;;;21.01;67.08;101603.22;5005429;28;20054;-61
2022/05/19 06:20:20;;;;;;;20.85;14.93;;;;;;;20.95;67.50;101616.59;5002854;28;20414;-61
2022/05/19 06:22:46;;;;;;;19.88;15.23;;;;;;;21.01;67.19;101603.22;5010452;28;20053;-59
2022/05/19 06:25:16;;;;;;;19.70;15.77;;;;;;;20.98;67.40;101601.00;5014106;28;20129;-59
2022/05/19 06:27:44;;;;;;;19.50;13.15;;;;;;;21.03;67.58;101600.94;5026835;28;20084;-60
2022/05/19 06:30:12;;;;;;;19.83;15.30;;;;;;;20.97;67.81;101599.34;5008467;28;20046;-60
2022/05/19 06:32:39;;;;;;;14.35;12.27;;;;;;;21.09;66.49;101597.72;5008990;28;20460;-61
2022/05/19 06:35:13;;;;;;;18.92;16.13;;;;;;;21.03;67.47;101589.66;5005693;28;20041;-60
2022/05/19 06:37:41;;;;;;;23.75;13.68;;;;;;;21.08;66.57;101600.88;5009420;28;20073;-61
2022/05/19 06:40:10;;;;;;;16.52;14.30;;;;;;;21.09;66.45;101597.72;5009798;28;20062;-61
2022/05/19 06:42:37;;;;;;;19.10;17.02;;;;;;;21.08;67.55;101598.03;5008032;28;20026;-61
2022/05/19 06:45:04;;;;;;;16.58;14.80;;;;;;;21.15;67.28;101590.03;5005459;28;20061;-61
2022/05/19 06:47:29;;;;;;;22.67;16.33;;;;;;;21.13;67.71;101577.34;5010264;28;20080;-61
2022/05/19 06:49:55;;;;;;;20.40;16.25;;;;;;;21.21;67.01;101563.38;5008972;28;20417;-61
2022/05/19 06:52:23;;;;;;;18.55;14.77;;;;;;;21.19;67.22;101576.97;5008379;28;20033;-61
2022/05/19 06:54:52;;;;;;;16.48;12.68;;;;;;;21.25;66.34;101584.19;5003173;28;20038;-61
2022/05/19 06:57:21;;;;;;;18.15;14.77;;;;;;;21.25;67.03;101581.38;5007085;28;20034;-61
2022/05/19 06:59:49;;;;;;;16.23;14.57;;;;;;;21.25;66.64;101581.38;5004829;28;20081;-61
2022/05/19 07:02:14;;;;;;;17.23;14.75;;;;;;;21.29;66.82;101592.91;5006843;28;20488;-61
2022/05/19 07:04:40;;;;;;;19.92;15.57;;;;;;;21.27;67.17;101583.91;5008690;28;20040;-61
2022/05/19 07:07:06;;;;;;;17.65;15.82;;;;;;;21.33;66.99;101571.41;5007875;28;20038;-61
2022/05/19 07:09:33;;;;;;;21.85;16.55;;;;;;;21.26;66.59;101571.78;5009996;28;20034;-61
2022/05/19 07:12:00;;;;;;;18.30;14.35;;;;;;;21.35;66.58;101571.94;5007623;28;20786;-61
2022/05/19 07:14:26;;;;;;;15.82;13.10;;;;;;;21.36;66.17;101569.94;5014466;28;20041;-62
2022/05/19 07:16:51;;;;;;;27.45;16.08;;;;;;;21.34;66.69;101556.16;5009020;28;20068;-62
2022/05/19 07:22:07;;;;;;;17.35;15.52;;;;;;;21.36;66.86;101556.66;5007693;28;20080;-61
2022/05/19 07:24:33;;;;;;;20.88;17.05;;;;;;;21.35;67.32;101557.00;5000288;28;20033;-61
2022/05/19 07:26:59;;;;;;;15.40;10.90;;;;;;;21.47;65.60;101549.69;5008547;28;20035;-62
2022/05/19 07:29:25;;;;;;;20.33;17.42;;;;;;;21.41;67.26;101542.44;5007366;28;20531;-63
2022/05/19 07:31:52;;;;;;;18.45;14.27;;;;;;;21.55;66.34;101545.31;5005772;28;20029;-61
2022/05/19 07:34:22;;;;;;;21.20;18.80;;;;;;;21.52;67.00;101554.41;5007205;28;20369;-61
2022/05/19 07:36:48;;;;;;;16.95;13.02;;;;;;;21.65;65.78;101558.41;5006531;28;20042;-61
2022/05/19 07:39:15;;;;;;;17.98;15.43;;;;;;;21.65;66.19;101572.53;5009852;28;20030;-60
2022/05/19 07:41:41;;;;;;;18.67;15.40;;;;;;;21.67;65.13;101576.72;5005981;28;20041;-61
2022/05/19 07:44:10;;;;;;;18.67;15.93;;;;;;;21.71;65.20;101583.44;5003346;28;20041;-61
2022/05/19 07:46:36;;;;;;;18.48;15.00;;;;;;;21.81;65.09;101582.41;5005626;28;20040;-61
2022/05/19 07:49:03;;;;;;;13.10;10.48;;;;;;;21.95;64.37;101588.09;5007598;28;20116;-62
2022/05/19 07:51:36;;;;;;;16.00;13.00;;;;;;;21.98;63.90;101590.28;5012071;28;20377;-62
2022/05/19 07:54:02;;;;;;;16.10;13.35;;;;;;;22.03;63.73;101578.88;5012130;28;20120;-61
2022/05/19 07:56:28;;;;;;;18.75;15.32;;;;;;;22.09;63.78;101582.47;5011907;28;20045;-60
2022/05/19 07:58:53;;;;;;;17.20;11.70;;;;;;;22.26;63.16;101575.03;5013139;28;20034;-60
2022/05/19 08:01:19;;;;;;;16.48;12.80;;;;;;;22.39;62.58;101575.34;5006676;28;20030;-61
2022/05/19 08:03:47;;;;;;;15.20;10.90;;;;;;;22.51;62.33;101575.63;5009230;28;20033;-61
2022/05/19 08:06:12;;;;;;;17.75;15.27;;;;;;;22.52;61.46;101561.19;5010029;28;20489;-61
2022/05/19 08:08:39;;;;;;;14.35;11.70;;;;;;;22.62;60.06;101565.78;5012451;28;20022;-61
2022/05/19 08:11:05;;;;;;;20.27;13.15;;;;;;;22.74;61.08;101559.56;5013040;28;20101;-61
2022/05/19 08:16:14;;;;;;;14.15;11.35;;;;;;;22.94;58.55;101572.44;5010429;28;20045;-62
2022/05/19 08:18:39;;;;;;;12.38;10.93;;;;;;;22.98;59.12;101574.31;5013099;28;20029;-61
2022/05/19 08:21:08;;;;;;;11.80;9.68;;;;;;;23.11;58.59;101577.41;5010837;28;20050;-62
2022/05/19 08:23:36;;;;;;;15.38;11.50;;;;;;;23.13;58.65;101573.09;5011156;28;20026;-62
2022/05/19 08:26:02;;;;;;;12.52;10.93;;;;;;;23.22;58.01;101571.16;5011087;28;20474;-62
2022/05/19 08:28:31;;;;;;;13.07;10.88;;;;;;;23.28;57.76;101569.88;5010814;28;20105;-61
2022/05/19 08:31:08;;;;;;;14.88;11.15;;;;;;;23.38;58.22;101576.44;5010635;28;20239;-61
2022/05/19 08:33:35;;;;;;;10.95;9.25;;;;;;;23.43;57.19;101570.66;5012843;28;20022;-61
2022/05/19 08:36:02;;;;;;;15.05;10.75;;;;;;;23.46;56.74;101568.03;5014513;28;20053;-61
2022/05/19 08:38:27;;;;;;;12.20;10.90;;;;;;;23.52;56.33;101561.06;5013176;28;20049;-61
2022/05/19 08:41:14;;;;;;;11.43;9.45;;;;;;;23.64;57.25;101562.47;5021696;28;20082;-60
2022/05/19 08:43:57;;;;;;;12.25;8.95;;;;;;;23.70;56.30;101561.19;5024185;28;20021;-61
2022/05/19 08:46:32;;;;;;;16.15;9.57;;;;;;;23.72;55.21;101551.19;5005358;28;20041;-61
2022/05/19 08:49:07;;;;;;;10.40;7.90;;;;;;;23.83;55.34;101551.75;5013270;28;20033;-61
2022/05/19 08:51:39;;;;;;;9.80;8.50;;;;;;;23.85;54.24;101542.91;5011637;28;20105;-61
2022/05/19 08:54:09;;;;;;;14.13;8.73;;;;;;;23.86;53.73;101534.09;5011692;28;20044;-61
2022/05/19 08:56:39;;;;;;;11.85;7.45;;;;;;;23.92;53.16;101529.09;5012004;28;20466;-61
2022/05/19 08:59:45;;;;;;;10.68;7.68;;;;;;;24.01;54.69;101529.97;5010429;28;20475;-61
2022/05/19 09:02:15;;;;;;;10.57;7.55;;;;;;;24.04;52.77;101534.16;5003170;28;20041;-61
2022/05/19 09:04:49;;;;;;;13.77;8.73;;;;;;;24.01;53.23;101529.97;5011311;28;20964;-62
2022/05/19 09:10:34;;;;;;;10.70;8.35;;;;;;;23.99;53.58;101526.63;4996213;28;20057;-61
2022/05/19 09:13:09;;;;;;;12.43;7.78;;;;;;;24.03;53.83;101527.66;5011059;28;20116;-61
2022/05/19 09:15:35;;;;;;;11.48;7.68;;;;;;;24.11;53.20;101541.03;5009149;28;20038;-61
2022/05/19 09:18:00;;;;;;;10.70;8.00;;;;;;;24.18;53.22;101530.03;5010418;28;20056;-62
2022/05/19 09:20:40;;;;;;;9.70;8.30;;;;;;;24.28;53.49;101526.06;5011363;28;20069;-62
2022/05/19 09:23:05;;;;;;;9.48;7.13;;;;;;;24.38;53.63;101525.78;5010473;28;20022;-62
2022/05/19 09:25:34;;;;;;;11.88;7.47;;;;;;;24.41;53.87;101519.47;5008838;28;20046;-63
2022/05/19 09:28:01;;;;;;;10.23;8.15;;;;;;;24.46;53.89;101524.97;5007588;28;20412;-61
2022/05/19 09:30:46;;;;;;;10.52;8.05;;;;;;;24.47;54.30;101522.97;5011810;28;20037;-61
2022/05/19 09:33:21;;;;;;;11.93;8.93;;;;;;;24.48;53.72;101527.47;5007205;28;20030;-61
2022/05/19 09:35:59;;;;;;;10.70;8.38;;;;;;;24.44;53.12;101520.78;5010434;28;20806;-62
2022/05/19 09:38:31;;;;;;;11.00;7.53;;;;;;;24.43;53.50;101528.47;5010196;28;20069;-62
2022/05/19 09:41:04;;;;;;;9.18;7.15;;;;;;;24.40;53.48;101526.28;5009771;28;20029;-62
2022/05/19 09:43:34;;;;;;;10.02;7.25;;;;;;;24.39;53.53;101521.78;5010395;28;20536;-61
2022/05/19 09:46:14;;;;;;;13.80;8.07;;;;;;;24.37;53.57;101531.78;5010372;28;20033;-61
2022/05/19 09:48:47;;;;;;;11.07;7.32;;;;;;;24.38;53.28;101527.75;5007699;28;20461;-62
2022/05/19 09:51:19;;;;;;;9.07;6.72;;;;;;;24.37;53.67;101520.41;5010279;28;20068;-62
2022/05/19 09:53:52;;;;;;;12.68;6.35;;;;;;;24.38;53.79;101519.25;5009633;28;20536;-62
2022/05/19 09:56:21;;;;;;;14.45;7.35;;;;;;;24.40;53.42;101514.94;5009911;28;20440;-61
2022/05/19 09:58:49;;;;;;;11.57;6.93;;;;;;;24.39;53.39;101512.44;5010237;28;20030;-61
2022/05/19 10:01:18;;;;;;;9.23;6.07;;;;;;;24.42;53.48;101500.44;5009191;28;20040;-61
2022/05/19 10:03:50;;;;;;;9.15;6.47;;;;;;;24.46;53.90;101501.44;5010706;28;20033;-61
2022/05/19 10:06:49;;;;;;;12.25;6.20;;;;;;;24.52;54.01;101496.41;5006209;28;20033;-61
2022/05/19 10:09:28;;;;;;;8.70;6.22;;;;;;;24.59;53.28;101489.09;5010058;28;20029;-61
2022/05/19 10:12:01;;;;;;;10.63;5.75;;;;;;;24.67;52.28;101474.06;5010082;28;20037;-61
2022/05/19 10:14:35;;;;;;;10.15;5.97;;;;;;;24.75;52.13;101461.03;5008921;28;20033;-61
2022/05/19 10:17:25;;;;;;;8.50;4.68;;;;;;;24.82;50.59;101461.38;5008194;28;20026;-61
2022/05/19 10:20:12;;;;;;;8.20;4.43;;;;;;;24.88;49.79;101457.19;5008120;28;20056;-61
2022/05/19 10:23:06;;;;;;;8.70;4.60;;;;;;;24.99;49.55;101457.66;5008786;28;21930;-62
2022/05/19 10:25:50;;;;;;;8.00;4.38;;;;;;;25.15;48.12;101461.69;5009943;28;20103;-61
2022/05/19 10:31:37;;;;;;;9.55;5.25;;;;;;;25.21;48.06;101451.81;5008903;28;20036;-61
2022/05/19 10:34:27;;;;;;;7.50;4.53;;;;;;;25.25;48.63;101451.97;5005054;28;20485;-62
2022/05/19 10:37:20;;;;;;;10.30;5.20;;;;;;;25.39;47.84;101454.63;5006237;28;20053;-62
2022/05/19 10:40:00;;;;;;;11.18;5.03;;;;;;;25.43;47.70;101455.59;5008691;28;20157;-61
2022/05/19 10:42:49;;;;;;;7.22;4.80;;;;;;;25.45;47.07;101454.06;5024620;28;20033;-61
2022/05/19 10:45:17;;;;;;;6.60;4.50;;;;;;;25.48;46.97;101463.94;5010441;28;20379;-62
2022/05/19 10:47:51;;;;;;;13.18;5.05;;;;;;;25.50;46.91;101466.44;5010844;28;20026;-62
2022/05/19 10:50:37;;;;;;;10.25;4.57;;;;;;;25.47;46.44;101450.91;5009789;28;20144;-61
2022/05/19 10:53:33;;;;;;;13.23;4.50;;;;;;;25.52;47.40;101447.03;5011111;28;20041;-62
2022/05/19 10:56:20;;;;;;;7.65;4.68;;;;;;;25.54;47.78;101459.72;5010725;28;20111;-62
2022/05/19 10:59:05;;;;;;;9.25;4.70;;;;;;;25.57;47.33;101453.38;5009514;28;20042;-61
2022/05/19 11:02:05;;;;;;;10.75;4.40;;;;;;;25.62;47.41;101441.81;5011666;28;20030;-62
2022/05/19 11:05:08;;;;;;;6.20;3.90;;;;;;;25.60;48.11;101447.00;4982828;28;20052;-61
2022/05/19 11:07:49;;;;;;;9.07;4.25;;;;;;;25.60;47.50;101455.53;4996107;28;20018;-62
2022/05/19 11:10:41;;;;;;;6.13;4.00;;;;;;;25.55;46.52;101441.50;5009968;28;20121;-61
2022/05/19 11:13:25;;;;;;;8.82;4.07;;;;;;;25.50;46.53;101447.38;5008040;28;20120;-61
2022/05/19 11:16:12;;;;;;;8.25;4.65;;;;;;;25.45;46.26;101439.03;5006531;28;20572;-63
2022/05/19 11:19:02;;;;;;;5.93;4.00;;;;;;;25.39;47.12;101440.41;4999152;28;20022;-63
2022/05/19 11:21:37;;;;;;;10.13;3.90;;;;;;;25.36;45.84;101446.75;5009597;28;20117;-64
2022/05/19 11:24:14;;;;;;;7.25;4.22;;;;;;;25.30;46.59;101451.78;5004385;28;20153;-66
2022/05/19 11:26:48;;;;;;;6.93;4.35;;;;;;;25.27;46.81;101461.00;5014165;28;20065;-63
2022/05/19 11:29:31;;;;;;;8.68;4.28;;;;;;;25.25;47.03;101474.69;5013871;28;20137;-64
2022/05/19 11:32:12;;;;;;;7.10;3.95;;;;;;;25.21;47.38;101483.06;5009842;28;20045;-64
2022/05/19 11:34:59;;;;;;;10.93;4.63;;;;;;;25.18;47.94;101497.94;5004977;28;20590;-63
2022/05/19 11:37:36;;;;;;;9.65;4.80;;;;;;;25.14;47.97;101499.78;5016773;28;20054;-63